A- A+ FrançaisEnglishEspañol中国

最近的 LGIR HeraklionYTWB ToowoombaYBWW Toowoomba WellcampLFPN Toussus-Le-NobleLFPZ St-Cyr-L'ecole GUCY Conakry Gbessia

飞行员的航空天气,使用METAR(气象机场报告)进行的飞行准备和TAF(终端机场预报:针对以下情况的短期天气预报)航空)。 以及其他资源,例如VAC(目视进近图)和NOTAM(通知飞行员)以进行预试飞行.

METAR, TAF, VAC, NOTAM Sveg机场 (Suède) / OACI ESND/ IATA EVG

它位于附近 , Sveg 在 3.3 km, Kingdom of Sweden 在 31 km, Ljusdals Kommun 在 70 km, Farila 在 80 km, Ange 在 83 km, Hoverberg 在 85 km, Älvdalens Kommun 在 87 km, Ljusdal 在 91 km, AElvdalen 在 93 km, Braecke 在 94 km,

机场的高度为 Sveg机场的

359 m = 1178 ft

跑道 Sveg机场的

附近的机场Sveg机场的

目前的天气 Sveg机场的 - ESND

ciel couvert
17°C

Vent 15 km/h

可提供5天天气预报 Sveg 在 3.3 km, Kingdom of Sweden 在 31 km, Ljusdals Kommun 在 70 km, Farila 在 80 km, Ange 在 83 km, Hoverberg 在 85 km, Älvdalens Kommun 在 87 km, Ljusdal 在 91 km, AElvdalen 在 93 km, Braecke 在 94 km,

METAR Sveg机场的 - ESND

ESND 021020Z AUTO 19008KT 170V240 9999 BKN057/// 17/06 Q1022

Sveg机场METAR解码 (Suède)

ESND机场发行的METAR日期2020年09月02日至10:20 GMT. 这是一个自动生成的METAR, 警告:此METAR已过期, 已于 17 天 6 小时 19 分钟.

可见度为大于 10 km = 大于6.2 sm.

温度为17°C = 63 °F 露点为6°C = 43 °F 。 这相当于48%的相对湿度。.

QNH是1022 hPa = 30.18 inHg

的风8 kt = 15 km/h, 风向为190°.

云:距云5700 ft = 1740 m.

TAF Sveg机场的 - ESND

没有TAF

Sveg视觉方法图 - ESND

所提供的视觉方法图(VAC视觉方法图)不保证其及时性。 在将其用于飞行准备或在飞行期间使用之前,飞行员是唯一负责验证其有效性的人员。.

Sveg机场的NOTAM

提供的NOTAM不能保证其时事性。 在将其用于飞行准备或在飞行期间使用之前,飞行员是唯一负责验证其有效性的人员。

没有通知

数据源